sensor_id;sensor_type;location;lat;lon;timestamp;pressure;altitude;pressure_sealevel;temperature;humidity
64853;BME280;56050;55.558;-4.644;2023-02-14T00:01:48;102846.81;;;8.71;62.99
64853;BME280;56050;55.558;-4.644;2023-02-14T00:04:15;102838.31;;;8.69;63.09
64853;BME280;56050;55.558;-4.644;2023-02-14T00:06:41;102835.63;;;8.69;62.86
64853;BME280;56050;55.558;-4.644;2023-02-14T00:09:10;102829.44;;;8.69;62.94
64853;BME280;56050;55.558;-4.644;2023-02-14T00:11:36;102835.91;;;8.68;62.86
64853;BME280;56050;55.558;-4.644;2023-02-14T00:14:03;102827.72;;;8.64;62.90
64853;BME280;56050;55.558;-4.644;2023-02-14T00:16:47;102833.41;;;8.63;62.94
64853;BME280;56050;55.558;-4.644;2023-02-14T00:19:14;102833.75;;;8.61;63.01
64853;BME280;56050;55.558;-4.644;2023-02-14T00:21:40;102829.81;;;8.59;62.98
64853;BME280;56050;55.558;-4.644;2023-02-14T00:24:14;102826.63;;;8.57;62.95
64853;BME280;56050;55.558;-4.644;2023-02-14T00:26:40;102823.47;;;8.55;63.08
64853;BME280;56050;55.558;-4.644;2023-02-14T00:29:08;102815.75;;;8.53;63.25
64853;BME280;56050;55.558;-4.644;2023-02-14T00:31:34;102819.22;;;8.54;63.12
64853;BME280;56050;55.558;-4.644;2023-02-14T00:33:59;102812.75;;;8.55;63.17
64853;BME280;56050;55.558;-4.644;2023-02-14T00:36:24;102810.50;;;8.57;62.94
64853;BME280;56050;55.558;-4.644;2023-02-14T00:38:50;102812.75;;;8.55;62.99
64853;BME280;56050;55.558;-4.644;2023-02-14T00:41:16;102804.22;;;8.53;62.99
64853;BME280;56050;55.558;-4.644;2023-02-14T00:43:45;102809.59;;;8.53;63.17
64853;BME280;56050;55.558;-4.644;2023-02-14T00:46:11;102805.31;;;8.52;63.02
64853;BME280;56050;55.558;-4.644;2023-02-14T00:48:37;102805.66;;;8.50;62.98
64853;BME280;56050;55.558;-4.644;2023-02-14T00:51:02;102804.69;;;8.46;63.13
64853;BME280;56050;55.558;-4.644;2023-02-14T00:53:28;102812.59;;;8.43;63.05
64853;BME280;56050;55.558;-4.644;2023-02-14T00:55:53;102797.47;;;8.38;63.18
64853;BME280;56050;55.558;-4.644;2023-02-14T00:58:18;102803.16;;;8.37;63.07
64853;BME280;56050;55.558;-4.644;2023-02-14T01:00:44;102804.25;;;8.36;63.17
64853;BME280;56050;55.558;-4.644;2023-02-14T01:03:09;102794.16;;;8.33;63.03
64853;BME280;56050;55.558;-4.644;2023-02-14T01:05:35;102796.03;;;8.32;63.17
64853;BME280;56050;55.558;-4.644;2023-02-14T01:08:01;102791.00;;;8.31;63.12
64853;BME280;56050;55.558;-4.644;2023-02-14T01:10:26;102786.72;;;8.30;63.37
64853;BME280;56050;55.558;-4.644;2023-02-14T01:12:51;102785.63;;;8.31;63.04
64853;BME280;56050;55.558;-4.644;2023-02-14T01:15:17;102773.66;;;8.28;63.16
64853;BME280;56050;55.558;-4.644;2023-02-14T01:17:43;102783.88;;;8.26;63.25
64853;BME280;56050;55.558;-4.644;2023-02-14T01:20:09;102780.25;;;8.22;63.18
64853;BME280;56050;55.558;-4.644;2023-02-14T01:22:36;102780.09;;;8.18;63.18
64853;BME280;56050;55.558;-4.644;2023-02-14T01:25:02;102790.03;;;8.18;63.25
64853;BME280;56050;55.558;-4.644;2023-02-14T01:27:27;102793.53;;;8.18;63.43
64853;BME280;56050;55.558;-4.644;2023-02-14T01:29:53;102799.06;;;8.22;63.26
64853;BME280;56050;55.558;-4.644;2023-02-14T01:32:18;102795.13;;;8.28;63.18
64853;BME280;56050;55.558;-4.644;2023-02-14T01:34:44;102790.53;;;8.28;63.00
64853;BME280;56050;55.558;-4.644;2023-02-14T01:37:09;102779.78;;;8.28;63.12
64853;BME280;56050;55.558;-4.644;2023-02-14T01:39:35;102787.84;;;8.28;63.21
64853;BME280;56050;55.558;-4.644;2023-02-14T01:42:00;102781.06;;;8.31;63.22
64853;BME280;56050;55.558;-4.644;2023-02-14T01:46:59;102780.88;;;8.36;62.98
64853;BME280;56050;55.558;-4.644;2023-02-14T01:49:27;102772.03;;;8.36;63.02
64853;BME280;56050;55.558;-4.644;2023-02-14T01:52:13;102774.25;;;8.34;62.90
64853;BME280;56050;55.558;-4.644;2023-02-14T01:54:43;102767.63;;;8.31;62.96
64853;BME280;56050;55.558;-4.644;2023-02-14T01:57:13;102768.72;;;8.30;63.20
64853;BME280;56050;55.558;-4.644;2023-02-14T01:59:44;102778.50;;;8.35;63.09
64853;BME280;56050;55.558;-4.644;2023-02-14T02:02:12;102770.59;;;8.38;63.11
64853;BME280;56050;55.558;-4.644;2023-02-14T02:04:41;102778.03;;;8.41;63.01
64853;BME280;56050;55.558;-4.644;2023-02-14T02:07:11;102784.66;;;8.44;62.99
64853;BME280;56050;55.558;-4.644;2023-02-14T02:12:17;102770.41;;;8.52;63.03
64853;BME280;56050;55.558;-4.644;2023-02-14T02:14:42;102768.16;;;8.54;62.92
64853;BME280;56050;55.558;-4.644;2023-02-14T02:17:14;102765.97;;;8.56;62.86
64853;BME280;56050;55.558;-4.644;2023-02-14T02:25:57;102772.28;;;8.51;62.97
64853;BME280;56050;55.558;-4.644;2023-02-14T02:47:21;102743.56;;;8.43;63.41
64853;BME280;56050;55.558;-4.644;2023-02-14T02:58:40;102741.19;;;8.50;63.52
64853;BME280;56050;55.558;-4.644;2023-02-14T03:01:19;102748.13;;;8.51;63.28
64853;BME280;56050;55.558;-4.644;2023-02-14T03:03:48;102748.28;;;8.55;63.51
64853;BME280;56050;55.558;-4.644;2023-02-14T03:06:36;102738.47;;;8.59;63.43
64853;BME280;56050;55.558;-4.644;2023-02-14T03:11:42;102748.53;;;8.62;63.37
64853;BME280;56050;55.558;-4.644;2023-02-14T03:14:34;102753.28;;;8.65;63.24
64853;BME280;56050;55.558;-4.644;2023-02-14T03:19:59;102727.16;;;8.74;63.09
64853;BME280;56050;55.558;-4.644;2023-02-14T03:23:31;102739.50;;;8.75;63.01
64853;BME280;56050;55.558;-4.644;2023-02-14T03:26:12;102722.38;;;8.79;62.99
64853;BME280;56050;55.558;-4.644;2023-02-14T03:36:39;102686.00;;;8.82;62.40
64853;BME280;56050;55.558;-4.644;2023-02-14T03:39:14;102680.19;;;8.80;62.48
64853;BME280;56050;55.558;-4.644;2023-02-14T03:41:50;102673.22;;;8.79;62.50
64853;BME280;56050;55.558;-4.644;2023-02-14T03:44:20;102685.41;;;8.76;62.71
64853;BME280;56050;55.558;-4.644;2023-02-14T03:47:09;102695.38;;;8.76;62.70
64853;BME280;56050;55.558;-4.644;2023-02-14T03:49:39;102698.19;;;8.79;62.58
64853;BME280;56050;55.558;-4.644;2023-02-14T03:52:08;102691.84;;;8.84;62.61
64853;BME280;56050;55.558;-4.644;2023-02-14T03:54:35;102679.34;;;8.88;62.50
64853;BME280;56050;55.558;-4.644;2023-02-14T03:57:14;102682.47;;;8.90;62.54
64853;BME280;56050;55.558;-4.644;2023-02-14T03:59:42;102686.75;;;8.91;62.52
64853;BME280;56050;55.558;-4.644;2023-02-14T04:04:57;102671.66;;;8.99;62.09
64853;BME280;56050;55.558;-4.644;2023-02-14T04:07:24;102670.88;;;8.98;62.22
64853;BME280;56050;55.558;-4.644;2023-02-14T04:09:50;102697.75;;;8.98;62.49
64853;BME280;56050;55.558;-4.644;2023-02-14T04:12:17;102702.19;;;9.03;62.49
64853;BME280;56050;55.558;-4.644;2023-02-14T04:14:42;102691.22;;;9.08;62.34
64853;BME280;56050;55.558;-4.644;2023-02-14T04:17:08;102692.13;;;9.12;62.21
64853;BME280;56050;55.558;-4.644;2023-02-14T04:19:52;102697.66;;;9.15;62.16
64853;BME280;56050;55.558;-4.644;2023-02-14T04:22:18;102666.19;;;9.16;62.03
64853;BME280;56050;55.558;-4.644;2023-02-14T04:24:43;102658.41;;;9.14;61.89
64853;BME280;56050;55.558;-4.644;2023-02-14T04:27:09;102673.66;;;9.10;62.00
64853;BME280;56050;55.558;-4.644;2023-02-14T04:29:41;102684.41;;;9.10;62.24
64853;BME280;56050;55.558;-4.644;2023-02-14T04:32:10;102677.59;;;9.13;62.28
64853;BME280;56050;55.558;-4.644;2023-02-14T04:34:36;102669.19;;;9.14;62.05
64853;BME280;56050;55.558;-4.644;2023-02-14T04:37:03;102679.94;;;9.14;62.13
64853;BME280;56050;55.558;-4.644;2023-02-14T04:39:28;102684.53;;;9.14;62.09
64853;BME280;56050;55.558;-4.644;2023-02-14T04:41:54;102682.16;;;9.12;62.07
64853;BME280;56050;55.558;-4.644;2023-02-14T04:44:20;102673.66;;;9.10;62.00
64853;BME280;56050;55.558;-4.644;2023-02-14T04:46:45;102669.72;;;9.08;62.06
64853;BME280;56050;55.558;-4.644;2023-02-14T04:49:11;102682.38;;;9.07;62.13
64853;BME280;56050;55.558;-4.644;2023-02-14T04:51:36;102684.59;;;9.05;62.01
64853;BME280;56050;55.558;-4.644;2023-02-14T04:54:02;102662.16;;;9.01;62.09
64853;BME280;56050;55.558;-4.644;2023-02-14T04:56:27;102650.38;;;8.94;61.97
64853;BME280;56050;55.558;-4.644;2023-02-14T04:58:53;102645.84;;;8.85;62.07
64853;BME280;56050;55.558;-4.644;2023-02-14T05:01:19;102650.47;;;8.76;62.21
64853;BME280;56050;55.558;-4.644;2023-02-14T05:03:44;102659.84;;;8.70;62.32
64853;BME280;56050;55.558;-4.644;2023-02-14T05:06:10;102676.94;;;8.66;62.35
64853;BME280;56050;55.558;-4.644;2023-02-14T05:08:35;102661.47;;;8.63;62.56
64853;BME280;56050;55.558;-4.644;2023-02-14T05:11:00;102666.06;;;8.62;62.48
64853;BME280;56050;55.558;-4.644;2023-02-14T05:13:26;102654.84;;;8.60;62.28
64853;BME280;56050;55.558;-4.644;2023-02-14T05:15:53;102645.75;;;8.53;62.40
64853;BME280;56050;55.558;-4.644;2023-02-14T05:18:18;102650.38;;;8.44;62.31
64853;BME280;56050;55.558;-4.644;2023-02-14T05:20:44;102645.81;;;8.36;62.38
64853;BME280;56050;55.558;-4.644;2023-02-14T05:23:09;102656.28;;;8.28;62.47
64853;BME280;56050;55.558;-4.644;2023-02-14T05:25:39;102634.81;;;8.20;62.52
64853;BME280;56050;55.558;-4.644;2023-02-14T05:28:05;102636.41;;;8.12;62.70
64853;BME280;56050;55.558;-4.644;2023-02-14T05:30:30;102644.97;;;8.06;62.75
64853;BME280;56050;55.558;-4.644;2023-02-14T05:32:56;102637.88;;;8.01;63.08
64853;BME280;56050;55.558;-4.644;2023-02-14T05:35:21;102639.94;;;7.96;63.19
64853;BME280;56050;55.558;-4.644;2023-02-14T05:37:47;102636.16;;;7.97;63.03
64853;BME280;56050;55.558;-4.644;2023-02-14T05:40:12;102638.69;;;7.93;63.23
64853;BME280;56050;55.558;-4.644;2023-02-14T05:42:39;102636.66;;;7.90;63.37
64853;BME280;56050;55.558;-4.644;2023-02-14T05:45:05;102631.63;;;7.89;63.85
64853;BME280;56050;55.558;-4.644;2023-02-14T05:47:30;102634.31;;;7.89;63.85
64853;BME280;56050;55.558;-4.644;2023-02-14T05:49:56;102629.72;;;7.89;63.70
64853;BME280;56050;55.558;-4.644;2023-02-14T05:52:21;102622.13;;;7.91;63.92
64853;BME280;56050;55.558;-4.644;2023-02-14T05:54:46;102631.44;;;7.94;64.11
64853;BME280;56050;55.558;-4.644;2023-02-14T05:57:12;102624.97;;;7.95;63.93
64853;BME280;56050;55.558;-4.644;2023-02-14T05:59:38;102620.72;;;7.94;63.94
64853;BME280;56050;55.558;-4.644;2023-02-14T06:02:03;102618.34;;;7.92;63.93
64853;BME280;56050;55.558;-4.644;2023-02-14T06:04:29;102619.59;;;7.95;64.00
64853;BME280;56050;55.558;-4.644;2023-02-14T06:06:54;102617.22;;;7.93;63.85
64853;BME280;56050;55.558;-4.644;2023-02-14T06:09:19;102618.34;;;7.92;64.07
64853;BME280;56050;55.558;-4.644;2023-02-14T06:11:45;102618.66;;;7.91;64.19
64853;BME280;56050;55.558;-4.644;2023-02-14T06:14:10;102612.84;;;7.89;64.39
64853;BME280;56050;55.558;-4.644;2023-02-14T06:16:36;102611.25;;;7.88;64.37
64853;BME280;56050;55.558;-4.644;2023-02-14T06:19:01;102612.50;;;7.90;64.45
64853;BME280;56050;55.558;-4.644;2023-02-14T06:21:27;102594.50;;;7.91;64.45
64853;BME280;56050;55.558;-4.644;2023-02-14T06:23:52;102589.16;;;7.91;64.65
64853;BME280;56050;55.558;-4.644;2023-02-14T06:26:18;102598.44;;;7.93;64.71
64853;BME280;56050;55.558;-4.644;2023-02-14T06:28:43;102593.06;;;7.93;64.60
64853;BME280;56050;55.558;-4.644;2023-02-14T06:31:15;102596.25;;;7.95;64.75
64853;BME280;56050;55.558;-4.644;2023-02-14T06:33:41;102589.91;;;8.00;64.67
64853;BME280;56050;55.558;-4.644;2023-02-14T06:36:06;102595.41;;;8.03;64.71
64853;BME280;56050;55.558;-4.644;2023-02-14T06:38:32;102593.19;;;8.05;64.74
64853;BME280;56050;55.558;-4.644;2023-02-14T06:41:04;102589.53;;;8.10;64.59
64853;BME280;56050;55.558;-4.644;2023-02-14T06:43:30;102589.03;;;8.16;64.73
64853;BME280;56050;55.558;-4.644;2023-02-14T06:45:55;102589.50;;;8.18;64.57
64853;BME280;56050;55.558;-4.644;2023-02-14T06:48:21;102586.31;;;8.25;64.83
64853;BME280;56050;55.558;-4.644;2023-02-14T06:50:46;102582.22;;;8.27;64.92
64853;BME280;56050;55.558;-4.644;2023-02-14T06:53:12;102585.34;;;8.30;64.97
64853;BME280;56050;55.558;-4.644;2023-02-14T06:55:37;102598.59;;;8.35;65.13
64853;BME280;56050;55.558;-4.644;2023-02-14T06:58:03;102602.66;;;8.41;65.04
64853;BME280;56050;55.558;-4.644;2023-02-14T07:00:28;102600.91;;;8.45;65.10
64853;BME280;56050;55.558;-4.644;2023-02-14T07:02:53;102601.53;;;8.50;65.04
64853;BME280;56050;55.558;-4.644;2023-02-14T07:05:19;102597.06;;;8.54;65.08
64853;BME280;56050;55.558;-4.644;2023-02-14T07:07:44;102593.88;;;8.61;65.34
64853;BME280;56050;55.558;-4.644;2023-02-14T07:10:10;102593.97;;;8.64;65.14
64853;BME280;56050;55.558;-4.644;2023-02-14T07:12:36;102596.22;;;8.62;65.08
64853;BME280;56050;55.558;-4.644;2023-02-14T07:15:08;102576.09;;;8.68;65.63
64853;BME280;56050;55.558;-4.644;2023-02-14T07:17:34;102585.41;;;8.71;65.58
64853;BME280;56050;55.558;-4.644;2023-02-14T07:19:59;102581.28;;;8.73;65.61
64853;BME280;56050;55.558;-4.644;2023-02-14T07:22:25;102580.31;;;8.78;65.41
64853;BME280;56050;55.558;-4.644;2023-02-14T07:24:50;102585.47;;;8.83;65.39
64853;BME280;56050;55.558;-4.644;2023-02-14T07:27:16;102588.63;;;8.85;65.36
64853;BME280;56050;55.558;-4.644;2023-02-14T07:29:41;102574.84;;;8.86;65.39
64853;BME280;56050;55.558;-4.644;2023-02-14T07:32:07;102578.44;;;8.91;65.22
64853;BME280;56050;55.558;-4.644;2023-02-14T07:34:32;102586.66;;;8.94;65.37
64853;BME280;56050;55.558;-4.644;2023-02-14T07:36:58;102598.31;;;8.98;65.11
64853;BME280;56050;55.558;-4.644;2023-02-14T07:39:24;102597.19;;;8.99;65.21
64853;BME280;56050;55.558;-4.644;2023-02-14T07:41:50;102611.53;;;9.03;65.19
64853;BME280;56050;55.558;-4.644;2023-02-14T07:44:15;102610.22;;;9.09;65.10
64853;BME280;56050;55.558;-4.644;2023-02-14T07:46:41;102613.06;;;9.13;64.93
64853;BME280;56050;55.558;-4.644;2023-02-14T07:49:07;102599.28;;;9.14;65.11
64853;BME280;56050;55.558;-4.644;2023-02-14T07:51:33;102606.38;;;9.19;64.73
64853;BME280;56050;55.558;-4.644;2023-02-14T07:53:58;102607.59;;;9.21;64.82
64853;BME280;56050;55.558;-4.644;2023-02-14T07:56:24;102610.44;;;9.25;64.76
64853;BME280;56050;55.558;-4.644;2023-02-14T07:58:49;102610.75;;;9.23;64.79
64853;BME280;56050;55.558;-4.644;2023-02-14T08:01:15;102601.88;;;9.23;64.77
64853;BME280;56050;55.558;-4.644;2023-02-14T08:03:41;102600.97;;;9.19;64.82
64853;BME280;56050;55.558;-4.644;2023-02-14T08:06:10;102589.31;;;9.15;64.71
64853;BME280;56050;55.558;-4.644;2023-02-14T08:08:36;102593.78;;;9.11;64.86
64853;BME280;56050;55.558;-4.644;2023-02-14T08:11:01;102590.31;;;9.10;64.92
64853;BME280;56050;55.558;-4.644;2023-02-14T08:13:27;102590.63;;;9.09;65.00
64853;BME280;56050;55.558;-4.644;2023-02-14T08:15:52;102594.56;;;9.11;64.91
64853;BME280;56050;55.558;-4.644;2023-02-14T08:18:40;102591.88;;;9.11;64.95
64853;BME280;56050;55.558;-4.644;2023-02-14T08:21:08;102593.44;;;9.12;64.86
64853;BME280;56050;55.558;-4.644;2023-02-14T08:23:35;102589.66;;;9.13;64.73
64853;BME280;56050;55.558;-4.644;2023-02-14T08:26:00;102590.09;;;9.15;64.79
64853;BME280;56050;55.558;-4.644;2023-02-14T08:28:26;102583.25;;;9.18;64.61
64853;BME280;56050;55.558;-4.644;2023-02-14T08:30:52;102589.56;;;9.22;64.60
64853;BME280;56050;55.558;-4.644;2023-02-14T08:33:18;102595.41;;;9.24;64.53
64853;BME280;56050;55.558;-4.644;2023-02-14T08:35:43;102602.00;;;9.26;64.50
64853;BME280;56050;55.558;-4.644;2023-02-14T08:38:09;102595.53;;;9.27;64.61
64853;BME280;56050;55.558;-4.644;2023-02-14T08:40:35;102600.56;;;9.29;64.50
64853;BME280;56050;55.558;-4.644;2023-02-14T08:43:04;102609.22;;;9.34;64.50
64853;BME280;56050;55.558;-4.644;2023-02-14T08:45:30;102610.59;;;9.40;64.40
64853;BME280;56050;55.558;-4.644;2023-02-14T08:48:04;102616.09;;;9.44;64.40
64853;BME280;56050;55.558;-4.644;2023-02-14T08:50:31;102610.50;;;9.49;64.18
64853;BME280;56050;55.558;-4.644;2023-02-14T08:52:56;102611.38;;;9.53;63.98
64853;BME280;56050;55.558;-4.644;2023-02-14T08:55:22;102605.25;;;9.53;63.99
64853;BME280;56050;55.558;-4.644;2023-02-14T08:57:47;102592.91;;;9.52;64.14
64853;BME280;56050;55.558;-4.644;2023-02-14T09:00:14;102592.25;;;9.55;63.88
64853;BME280;56050;55.558;-4.644;2023-02-14T09:02:40;102589.56;;;9.55;63.74
64853;BME280;56050;55.558;-4.644;2023-02-14T09:05:06;102582.59;;;9.54;63.92
64853;BME280;56050;55.558;-4.644;2023-02-14T09:07:33;102581.94;;;9.57;63.67
64853;BME280;56050;55.558;-4.644;2023-02-14T09:09:59;102570.06;;;9.58;63.74
64853;BME280;56050;55.558;-4.644;2023-02-14T09:12:25;102565.47;;;9.58;63.59
64853;BME280;56050;55.558;-4.644;2023-02-14T09:14:50;102571.28;;;9.60;63.57
64853;BME280;56050;55.558;-4.644;2023-02-14T09:17:16;102563.22;;;9.60;63.40
64853;BME280;56050;55.558;-4.644;2023-02-14T09:19:42;102560.97;;;9.62;63.58
64853;BME280;56050;55.558;-4.644;2023-02-14T09:22:09;102564.91;;;9.65;63.60
64853;BME280;56050;55.558;-4.644;2023-02-14T09:24:36;102561.53;;;9.68;63.46
64853;BME280;56050;55.558;-4.644;2023-02-14T09:27:03;102567.38;;;9.70;63.61
64853;BME280;56050;55.558;-4.644;2023-02-14T09:29:29;102570.63;;;9.75;63.42
64853;BME280;56050;55.558;-4.644;2023-02-14T09:31:57;102576.13;;;9.79;63.25
64853;BME280;56050;55.558;-4.644;2023-02-14T09:34:23;102571.19;;;9.81;63.29
64853;BME280;56050;55.558;-4.644;2023-02-14T09:36:49;102572.41;;;9.83;63.20
64853;BME280;56050;55.558;-4.644;2023-02-14T09:39:15;102565.59;;;9.86;63.09
64853;BME280;56050;55.558;-4.644;2023-02-14T09:46:52;102576.03;;;9.99;62.91
64853;BME280;56050;55.558;-4.644;2023-02-14T09:49:27;102559.97;;;10.03;62.65
64853;BME280;56050;55.558;-4.644;2023-02-14T09:51:56;102569.63;;;10.04;62.76
64853;BME280;56050;55.558;-4.644;2023-02-14T09:54:26;102570.75;;;10.03;62.86
64853;BME280;56050;55.558;-4.644;2023-02-14T09:57:07;102569.75;;;10.08;62.98
64853;BME280;56050;55.558;-4.644;2023-02-14T10:10:40;102581.97;;;10.41;62.53
64853;BME280;56050;55.558;-4.644;2023-02-14T10:18:48;102574.31;;;10.55;62.40
64853;BME280;56050;55.558;-4.644;2023-02-14T10:21:24;102571.72;;;10.59;62.25
64853;BME280;56050;55.558;-4.644;2023-02-14T10:24:03;102568.00;;;10.63;61.93
64853;BME280;56050;55.558;-4.644;2023-02-14T10:26:39;102565.78;;;10.66;62.17
64853;BME280;56050;55.558;-4.644;2023-02-14T10:29:10;102561.59;;;10.68;62.04
64853;BME280;56050;55.558;-4.644;2023-02-14T10:31:53;102554.06;;;10.74;61.82
64853;BME280;56050;55.558;-4.644;2023-02-14T10:37:12;102561.56;;;10.80;61.73
64853;BME280;56050;55.558;-4.644;2023-02-14T10:42:55;102564.78;;;10.86;61.66
64853;BME280;56050;55.558;-4.644;2023-02-14T10:45:25;102566.13;;;10.92;61.33
64853;BME280;56050;55.558;-4.644;2023-02-14T10:53:19;102575.09;;;10.96;61.47
64853;BME280;56050;55.558;-4.644;2023-02-14T10:58:20;102568.00;;;11.03;61.26
64853;BME280;56050;55.558;-4.644;2023-02-14T11:03:18;102580.91;;;11.10;61.36
64853;BME280;56050;55.558;-4.644;2023-02-14T11:05:48;102570.88;;;11.10;61.11
64853;BME280;56050;55.558;-4.644;2023-02-14T11:10:39;102573.78;;;11.17;61.48
64853;BME280;56050;55.558;-4.644;2023-02-14T11:15:52;102571.34;;;11.28;61.30
64853;BME280;56050;55.558;-4.644;2023-02-14T11:18:23;102568.06;;;11.35;61.28
64853;BME280;56050;55.558;-4.644;2023-02-14T11:23:27;102567.91;;;11.43;61.06
64853;BME280;56050;55.558;-4.644;2023-02-14T11:25:56;102561.38;;;11.44;61.02
64853;BME280;56050;55.558;-4.644;2023-02-14T11:28:22;102552.47;;;11.44;60.95
64853;BME280;56050;55.558;-4.644;2023-02-14T11:30:49;102549.34;;;11.42;61.10
64853;BME280;56050;55.558;-4.644;2023-02-14T11:33:44;102546.22;;;11.40;61.19
64853;BME280;56050;55.558;-4.644;2023-02-14T11:36:14;102535.06;;;11.41;61.10
64853;BME280;56050;55.558;-4.644;2023-02-14T11:38:42;102534.38;;;11.44;61.23
64853;BME280;56050;55.558;-4.644;2023-02-14T11:41:12;102554.41;;;11.43;61.32
64853;BME280;56050;55.558;-4.644;2023-02-14T11:43:43;102557.81;;;11.40;61.45
64853;BME280;56050;55.558;-4.644;2023-02-14T11:48:37;102551.63;;;11.40;61.89
64853;BME280;56050;55.558;-4.644;2023-02-14T11:51:06;102555.44;;;11.39;62.33
64853;BME280;56050;55.558;-4.644;2023-02-14T11:53:53;102555.34;;;11.35;62.70
64853;BME280;56050;55.558;-4.644;2023-02-14T11:56:22;102552.47;;;11.28;62.83
64853;BME280;56050;55.558;-4.644;2023-02-14T11:58:49;102546.53;;;11.23;62.90
64853;BME280;56050;55.558;-4.644;2023-02-14T12:03:50;102538.72;;;11.17;63.35
64853;BME280;56050;55.558;-4.644;2023-02-14T12:06:27;102547.50;;;11.14;63.37
64853;BME280;56050;55.558;-4.644;2023-02-14T12:12:01;102531.03;;;11.19;63.34
64853;BME280;56050;55.558;-4.644;2023-02-14T12:14:35;102527.66;;;11.23;63.18
64853;BME280;56050;55.558;-4.644;2023-02-14T12:19:58;102520.97;;;11.32;62.98
64853;BME280;56050;55.558;-4.644;2023-02-14T12:22:32;102523.84;;;11.39;62.97
64853;BME280;56050;55.558;-4.644;2023-02-14T12:25:05;102520.09;;;11.44;63.13
64853;BME280;56050;55.558;-4.644;2023-02-14T12:28:03;102515.59;;;11.48;63.15
64853;BME280;56050;55.558;-4.644;2023-02-14T12:30:33;102517.22;;;11.52;62.95
64853;BME280;56050;55.558;-4.644;2023-02-14T12:32:59;102515.06;;;11.58;62.72
64853;BME280;56050;55.558;-4.644;2023-02-14T13:00:22;102465.00;;;11.76;63.32
64853;BME280;56050;55.558;-4.644;2023-02-14T13:03:26;102457.34;;;11.78;63.28
64853;BME280;56050;55.558;-4.644;2023-02-14T13:06:23;102455.47;;;11.82;63.58
64853;BME280;56050;55.558;-4.644;2023-02-14T13:09:11;102465.16;;;11.83;63.50
64853;BME280;56050;55.558;-4.644;2023-02-14T13:14:40;102452.94;;;11.89;63.65
64853;BME280;56050;55.558;-4.644;2023-02-14T13:23:10;102440.66;;;11.92;63.80
64853;BME280;56050;55.558;-4.644;2023-02-14T13:25:38;102429.50;;;11.93;63.81
64853;BME280;56050;55.558;-4.644;2023-02-14T13:28:11;102426.03;;;11.93;63.82
64853;BME280;56050;55.558;-4.644;2023-02-14T13:30:38;102434.47;;;11.91;63.80
64853;BME280;56050;55.558;-4.644;2023-02-14T13:35:43;102421.75;;;11.92;63.99
64853;BME280;56050;55.558;-4.644;2023-02-14T13:38:13;102414.06;;;11.94;64.06
64853;BME280;56050;55.558;-4.644;2023-02-14T13:40:40;102406.41;;;11.96;64.21
64853;BME280;56050;55.558;-4.644;2023-02-14T13:43:06;102416.50;;;11.99;64.19
64853;BME280;56050;55.558;-4.644;2023-02-14T13:50:33;102414.25;;;12.01;64.30
64853;BME280;56050;55.558;-4.644;2023-02-14T13:53:01;102401.94;;;12.03;64.28
64853;BME280;56050;55.558;-4.644;2023-02-14T13:55:33;102394.97;;;12.02;64.52
64853;BME280;56050;55.558;-4.644;2023-02-14T13:58:06;102395.66;;;11.99;64.37
64853;BME280;56050;55.558;-4.644;2023-02-14T14:00:44;102405.25;;;11.97;64.55
64853;BME280;56050;55.558;-4.644;2023-02-14T14:06:07;102402.56;;;11.97;64.62
64853;BME280;56050;55.558;-4.644;2023-02-14T14:08:47;102387.50;;;11.96;64.76
64853;BME280;56050;55.558;-4.644;2023-02-14T14:13:58;102380.63;;;11.98;64.83
64853;BME280;56050;55.558;-4.644;2023-02-14T14:16:33;102376.44;;;12.01;64.80
64853;BME280;56050;55.558;-4.644;2023-02-14T14:21:34;102357.56;;;12.04;64.72
64853;BME280;56050;55.558;-4.644;2023-02-14T14:26:45;102357.66;;;12.08;65.34
64853;BME280;56050;55.558;-4.644;2023-02-14T14:29:44;102356.03;;;12.03;65.40
64853;BME280;56050;55.558;-4.644;2023-02-14T14:32:19;102338.25;;;12.02;65.21
64853;BME280;56050;55.558;-4.644;2023-02-14T14:34:58;102334.00;;;12.01;65.53
64853;BME280;56050;55.558;-4.644;2023-02-14T14:37:27;102327.38;;;11.99;65.52
64853;BME280;56050;55.558;-4.644;2023-02-14T14:39:58;102322.31;;;11.97;65.60
64853;BME280;56050;55.558;-4.644;2023-02-14T14:42:28;102320.75;;;11.96;65.48
64853;BME280;56050;55.558;-4.644;2023-02-14T14:45:06;102329.56;;;11.93;65.84
64853;BME280;56050;55.558;-4.644;2023-02-14T14:47:40;102324.94;;;11.94;65.73
64853;BME280;56050;55.558;-4.644;2023-02-14T14:50:12;102321.84;;;11.92;65.91
64853;BME280;56050;55.558;-4.644;2023-02-14T14:52:41;102327.22;;;11.92;65.96
64853;BME280;56050;55.558;-4.644;2023-02-14T14:55:16;102332.25;;;11.93;66.06
64853;BME280;56050;55.558;-4.644;2023-02-14T14:57:49;102325.81;;;11.98;65.94
64853;BME280;56050;55.558;-4.644;2023-02-14T15:00:19;102339.81;;;12.03;65.75
64853;BME280;56050;55.558;-4.644;2023-02-14T15:03:04;102344.94;;;12.08;65.74
64853;BME280;56050;55.558;-4.644;2023-02-14T15:05:37;102353.94;;;12.16;65.72
64853;BME280;56050;55.558;-4.644;2023-02-14T15:08:28;102352.03;;;12.16;65.56
64853;BME280;56050;55.558;-4.644;2023-02-14T15:11:03;102352.81;;;12.17;65.62
64853;BME280;56050;55.558;-4.644;2023-02-14T15:13:48;102343.13;;;12.16;65.76
64853;BME280;56050;55.558;-4.644;2023-02-14T15:16:39;102329.28;;;12.17;65.66
64853;BME280;56050;55.558;-4.644;2023-02-14T15:19:18;102325.81;;;12.17;65.54
64853;BME280;56050;55.558;-4.644;2023-02-14T15:21:45;102329.22;;;12.14;65.60
64853;BME280;56050;55.558;-4.644;2023-02-14T15:24:16;102339.94;;;12.10;65.71
64853;BME280;56050;55.558;-4.644;2023-02-14T15:26:44;102337.94;;;12.07;65.83
64853;BME280;56050;55.558;-4.644;2023-02-14T15:29:23;102345.56;;;12.02;66.05
64853;BME280;56050;55.558;-4.644;2023-02-14T15:31:49;102348.97;;;11.99;66.04
64853;BME280;56050;55.558;-4.644;2023-02-14T15:34:16;102345.50;;;11.98;66.25
64853;BME280;56050;55.558;-4.644;2023-02-14T15:36:46;102347.06;;;11.99;66.29
64853;BME280;56050;55.558;-4.644;2023-02-14T15:39:21;102349.41;;;12.01;66.24
64853;BME280;56050;55.558;-4.644;2023-02-14T15:41:52;102343.31;;;12.04;66.21
64853;BME280;56050;55.558;-4.644;2023-02-14T15:44:21;102347.97;;;12.07;65.96